sensor_id;sensor_type;location;lat;lon;timestamp;pressure;altitude;pressure_sealevel;temperature
20490;BMP280;10403;54.092;12.122;2022-08-19T00:00:10;101248.53;;;25.80
20490;BMP280;10403;54.092;12.122;2022-08-19T00:02:37;101236.44;;;25.74
20490;BMP280;10403;54.092;12.122;2022-08-19T00:05:17;101224.19;;;25.70
20490;BMP280;10403;54.092;12.122;2022-08-19T00:07:46;101233.50;;;25.77
20490;BMP280;10403;54.092;12.122;2022-08-19T00:10:16;101241.56;;;25.77
20490;BMP280;10403;54.092;12.122;2022-08-19T00:12:43;101229.97;;;25.77
20490;BMP280;10403;54.092;12.122;2022-08-19T00:15:17;101238.88;;;25.77
20490;BMP280;10403;54.092;12.122;2022-08-19T00:17:45;101240.69;;;25.77
20490;BMP280;10403;54.092;12.122;2022-08-19T00:20:18;101233.63;;;25.76
20490;BMP280;10403;54.092;12.122;2022-08-19T00:22:47;101236.28;;;25.76
20490;BMP280;10403;54.092;12.122;2022-08-19T00:25:16;101237.28;;;25.75
20490;BMP280;10403;54.092;12.122;2022-08-19T00:27:43;101251.22;;;25.80
20490;BMP280;10403;54.092;12.122;2022-08-19T00:30:11;101246.06;;;25.77
20490;BMP280;10403;54.092;12.122;2022-08-19T00:32:39;101254.94;;;25.77
20490;BMP280;10403;54.092;12.122;2022-08-19T00:35:08;101250.56;;;25.76
20490;BMP280;10403;54.092;12.122;2022-08-19T00:37:37;101251.41;;;25.77
20490;BMP280;10403;54.092;12.122;2022-08-19T00:40:07;101247.78;;;25.78
20490;BMP280;10403;54.092;12.122;2022-08-19T00:42:34;101245.34;;;25.75
20490;BMP280;10403;54.092;12.122;2022-08-19T00:45:09;101243.59;;;25.74
20490;BMP280;10403;54.092;12.122;2022-08-19T00:47:36;101227.41;;;25.63
20490;BMP280;10403;54.092;12.122;2022-08-19T00:50:06;101238.44;;;25.71
20490;BMP280;10403;54.092;12.122;2022-08-19T00:52:41;101245.22;;;25.64
20490;BMP280;10403;54.092;12.122;2022-08-19T00:55:25;101232.63;;;25.52
20490;BMP280;10403;54.092;12.122;2022-08-19T00:58:07;101241.63;;;25.51
20490;BMP280;10403;54.092;12.122;2022-08-19T01:00:35;101240.56;;;25.53
20490;BMP280;10403;54.092;12.122;2022-08-19T01:03:14;101237.22;;;25.50
20490;BMP280;10403;54.092;12.122;2022-08-19T01:05:47;101244.84;;;25.56
20490;BMP280;10403;54.092;12.122;2022-08-19T01:08:18;101253.63;;;25.58
20490;BMP280;10403;54.092;12.122;2022-08-19T01:10:58;101261.56;;;25.59
20490;BMP280;10403;54.092;12.122;2022-08-19T01:13:30;101263.31;;;25.60
20490;BMP280;10403;54.092;12.122;2022-08-19T01:16:19;101258.97;;;25.58
20490;BMP280;10403;54.092;12.122;2022-08-19T01:18:48;101264.06;;;25.62
20490;BMP280;10403;54.092;12.122;2022-08-19T01:21:27;101257.84;;;25.62
20490;BMP280;10403;54.092;12.122;2022-08-19T01:23:58;101245.59;;;25.58
20490;BMP280;10403;54.092;12.122;2022-08-19T01:26:27;101262.09;;;25.52
20490;BMP280;10403;54.092;12.122;2022-08-19T01:28:59;101243.97;;;25.42
20490;BMP280;10403;54.092;12.122;2022-08-19T01:31:29;101255.66;;;25.41
20490;BMP280;10403;54.092;12.122;2022-08-19T01:34:01;101263.16;;;25.36
20490;BMP280;10403;54.092;12.122;2022-08-19T01:36:40;101262.59;;;25.31
20490;BMP280;10403;54.092;12.122;2022-08-19T01:39:15;101277.38;;;25.37
20490;BMP280;10403;54.092;12.122;2022-08-19T01:41:43;101275.56;;;25.37
20490;BMP280;10403;54.092;12.122;2022-08-19T01:44:10;101273.88;;;25.36
20490;BMP280;10403;54.092;12.122;2022-08-19T01:46:47;101260.09;;;25.28
20490;BMP280;10403;54.092;12.122;2022-08-19T01:49:17;101256.69;;;25.26
20490;BMP280;10403;54.092;12.122;2022-08-19T01:51:45;101255.03;;;25.11
20490;BMP280;10403;54.092;12.122;2022-08-19T01:54:14;101243.13;;;25.02
20490;BMP280;10403;54.092;12.122;2022-08-19T01:57:00;101231.97;;;24.96
20490;BMP280;10403;54.092;12.122;2022-08-19T01:59:28;101232.06;;;24.94
20490;BMP280;10403;54.092;12.122;2022-08-19T02:01:56;101226.00;;;24.91
20490;BMP280;10403;54.092;12.122;2022-08-19T02:04:23;101220.03;;;24.87
20490;BMP280;10403;54.092;12.122;2022-08-19T02:06:52;101213.91;;;24.85
20490;BMP280;10403;54.092;12.122;2022-08-19T02:09:19;101209.81;;;24.80
20490;BMP280;10403;54.092;12.122;2022-08-19T02:11:46;101208.22;;;24.77
20490;BMP280;10403;54.092;12.122;2022-08-19T02:14:13;101206.59;;;24.75
20490;BMP280;10403;54.092;12.122;2022-08-19T02:16:40;101193.81;;;24.65
20490;BMP280;10403;54.092;12.122;2022-08-19T02:19:08;101200.66;;;24.69
20490;BMP280;10403;54.092;12.122;2022-08-19T02:21:35;101210.06;;;24.62
20490;BMP280;10403;54.092;12.122;2022-08-19T02:24:02;101212.28;;;24.56
20490;BMP280;10403;54.092;12.122;2022-08-19T02:26:29;101220.22;;;24.57
20490;BMP280;10403;54.092;12.122;2022-08-19T02:28:56;101220.41;;;24.54
20490;BMP280;10403;54.092;12.122;2022-08-19T02:31:27;101226.16;;;24.48
20490;BMP280;10403;54.092;12.122;2022-08-19T02:33:56;101229.97;;;24.44
20490;BMP280;10403;54.092;12.122;2022-08-19T02:36:25;101219.88;;;24.35
20490;BMP280;10403;54.092;12.122;2022-08-19T02:38:53;101240.00;;;24.41
20490;BMP280;10403;54.092;12.122;2022-08-19T02:41:29;101240.00;;;24.41
20490;BMP280;10403;54.092;12.122;2022-08-19T02:43:59;101237.41;;;24.39
20490;BMP280;10403;54.092;12.122;2022-08-19T02:46:48;101224.06;;;24.39
20490;BMP280;10403;54.092;12.122;2022-08-19T02:49:19;101223.50;;;24.34
20490;BMP280;10403;54.092;12.122;2022-08-19T02:51:46;101235.25;;;24.31
20490;BMP280;10403;54.092;12.122;2022-08-19T02:54:15;101240.13;;;24.25
20490;BMP280;10403;54.092;12.122;2022-08-19T02:56:43;101251.59;;;24.27
20490;BMP280;10403;54.092;12.122;2022-08-19T02:59:11;101258.53;;;24.29
20490;BMP280;10403;54.092;12.122;2022-08-19T03:01:41;101255.59;;;24.34
20490;BMP280;10403;54.092;12.122;2022-08-19T03:04:13;101253.88;;;24.33
20490;BMP280;10403;54.092;12.122;2022-08-19T03:06:46;101243.47;;;24.28
20490;BMP280;10403;54.092;12.122;2022-08-19T03:09:14;101235.16;;;24.19
20490;BMP280;10403;54.092;12.122;2022-08-19T03:11:41;101242.19;;;24.20
20490;BMP280;10403;54.092;12.122;2022-08-19T03:14:10;101235.16;;;24.19
20490;BMP280;10403;54.092;12.122;2022-08-19T03:16:48;101238.09;;;24.14
20490;BMP280;10403;54.092;12.122;2022-08-19T03:19:20;101224.72;;;24.00
20490;BMP280;10403;54.092;12.122;2022-08-19T03:21:48;101236.56;;;23.96
20490;BMP280;10403;54.092;12.122;2022-08-19T03:24:17;101224.44;;;23.90
20490;BMP280;10403;54.092;12.122;2022-08-19T03:26:50;101228.09;;;23.89
20490;BMP280;10403;54.092;12.122;2022-08-19T03:29:19;101232.28;;;23.93
20490;BMP280;10403;54.092;12.122;2022-08-19T03:32:04;101240.59;;;23.89
20490;BMP280;10403;54.092;12.122;2022-08-19T03:34:34;101229.22;;;23.85
20490;BMP280;10403;54.092;12.122;2022-08-19T03:37:07;101232.06;;;23.82
20490;BMP280;10403;54.092;12.122;2022-08-19T03:39:37;101229.31;;;23.84
20490;BMP280;10403;54.092;12.122;2022-08-19T03:42:05;101227.41;;;23.86
20490;BMP280;10403;54.092;12.122;2022-08-19T03:44:52;101223.09;;;23.83
20490;BMP280;10403;54.092;12.122;2022-08-19T03:47:19;101227.97;;;23.77
20490;BMP280;10403;54.092;12.122;2022-08-19T03:49:46;101224.06;;;23.68
20490;BMP280;10403;54.092;12.122;2022-08-19T03:52:13;101227.69;;;23.67
20490;BMP280;10403;54.092;12.122;2022-08-19T03:54:40;101237.22;;;23.71
20490;BMP280;10403;54.092;12.122;2022-08-19T03:57:07;101247.72;;;23.74
20490;BMP280;10403;54.092;12.122;2022-08-19T03:59:37;101248.50;;;23.76
20490;BMP280;10403;54.092;12.122;2022-08-19T04:02:09;101265.09;;;23.81
20490;BMP280;10403;54.092;12.122;2022-08-19T04:04:40;101256.03;;;23.84
20490;BMP280;10403;54.092;12.122;2022-08-19T04:07:09;101256.41;;;23.92
20490;BMP280;10403;54.092;12.122;2022-08-19T04:09:37;101272.66;;;24.03
20490;BMP280;10403;54.092;12.122;2022-08-19T04:12:05;101268.94;;;24.06
20490;BMP280;10403;54.092;12.122;2022-08-19T04:14:34;101281.56;;;24.18
20490;BMP280;10403;54.092;12.122;2022-08-19T04:17:03;101279.56;;;24.21
20490;BMP280;10403;54.092;12.122;2022-08-19T04:19:34;101285.59;;;24.25
20490;BMP280;10403;54.092;12.122;2022-08-19T04:22:03;101280.16;;;24.26
20490;BMP280;10403;54.092;12.122;2022-08-19T04:24:31;101274.81;;;24.26
20490;BMP280;10403;54.092;12.122;2022-08-19T04:27:00;101280.63;;;24.33
20490;BMP280;10403;54.092;12.122;2022-08-19T04:29:29;101284.91;;;24.36
20490;BMP280;10403;54.092;12.122;2022-08-19T04:31:58;101290.91;;;24.39
20490;BMP280;10403;54.092;12.122;2022-08-19T04:34:28;101294.56;;;24.38
20490;BMP280;10403;54.092;12.122;2022-08-19T04:36:58;101294.25;;;24.43
20490;BMP280;10403;54.092;12.122;2022-08-19T04:39:30;101302.97;;;24.46
20490;BMP280;10403;54.092;12.122;2022-08-19T04:42:17;101306.59;;;24.45
20490;BMP280;10403;54.092;12.122;2022-08-19T04:45:06;101306.59;;;24.45
20490;BMP280;10403;54.092;12.122;2022-08-19T04:47:37;101305.72;;;24.45
20490;BMP280;10403;54.092;12.122;2022-08-19T04:50:18;101293.72;;;24.38
20490;BMP280;10403;54.092;12.122;2022-08-19T04:52:45;101303.25;;;24.42
20490;BMP280;10403;54.092;12.122;2022-08-19T04:55:13;101308.31;;;24.46
20490;BMP280;10403;54.092;12.122;2022-08-19T04:57:41;101323.59;;;24.44
20490;BMP280;10403;54.092;12.122;2022-08-19T05:00:10;101329.50;;;24.49
20490;BMP280;10403;54.092;12.122;2022-08-19T05:02:38;101324.91;;;24.51
20490;BMP280;10403;54.092;12.122;2022-08-19T05:05:06;101316.78;;;24.53
20490;BMP280;10403;54.092;12.122;2022-08-19T05:07:34;101313.34;;;24.51
20490;BMP280;10403;54.092;12.122;2022-08-19T05:10:04;101307.25;;;24.49
20490;BMP280;10403;54.092;12.122;2022-08-19T05:12:32;101314.03;;;24.54
20490;BMP280;10403;54.092;12.122;2022-08-19T05:14:59;101306.88;;;24.55
20490;BMP280;10403;54.092;12.122;2022-08-19T05:17:27;101325.00;;;24.64
20490;BMP280;10403;54.092;12.122;2022-08-19T05:20:05;101316.97;;;24.64
20490;BMP280;10403;54.092;12.122;2022-08-19T05:22:50;101333.50;;;24.70
20490;BMP280;10403;54.092;12.122;2022-08-19T05:25:21;101343.53;;;24.81
20490;BMP280;10403;54.092;12.122;2022-08-19T05:27:48;101331.19;;;24.79
20490;BMP280;10403;54.092;12.122;2022-08-19T05:30:16;101353.00;;;24.87
20490;BMP280;10403;54.092;12.122;2022-08-19T05:32:44;101345.81;;;24.87
20490;BMP280;10403;54.092;12.122;2022-08-19T05:35:11;101351.66;;;24.94
20490;BMP280;10403;54.092;12.122;2022-08-19T05:37:39;101349.75;;;24.96
20490;BMP280;10403;54.092;12.122;2022-08-19T05:40:09;101308.72;;;24.81
20490;BMP280;10403;54.092;12.122;2022-08-19T05:42:37;101353.44;;;25.07
20490;BMP280;10403;54.092;12.122;2022-08-19T05:45:06;101342.84;;;25.06
20490;BMP280;10403;54.092;12.122;2022-08-19T05:47:34;101345.09;;;25.12
20490;BMP280;10403;54.092;12.122;2022-08-19T05:50:08;101326.88;;;25.04
20490;BMP280;10403;54.092;12.122;2022-08-19T05:52:37;101340.72;;;25.11
20490;BMP280;10403;54.092;12.122;2022-08-19T05:55:09;101339.31;;;25.05
20490;BMP280;10403;54.092;12.122;2022-08-19T05:57:37;101334.22;;;25.01
20490;BMP280;10403;54.092;12.122;2022-08-19T06:00:06;101322.75;;;24.99
20490;BMP280;10403;54.092;12.122;2022-08-19T06:02:39;101332.88;;;25.08
20490;BMP280;10403;54.092;12.122;2022-08-19T06:05:08;101330.00;;;25.11
20490;BMP280;10403;54.092;12.122;2022-08-19T06:07:38;101324.75;;;25.10
20490;BMP280;10403;54.092;12.122;2022-08-19T06:10:09;101322.16;;;25.08
20490;BMP280;10403;54.092;12.122;2022-08-19T06:12:37;101329.72;;;25.16
20490;BMP280;10403;54.092;12.122;2022-08-19T06:15:11;101326.06;;;25.17
20490;BMP280;10403;54.092;12.122;2022-08-19T06:17:38;101320.91;;;25.14
20490;BMP280;10403;54.092;12.122;2022-08-19T06:20:09;101324.22;;;25.17
20490;BMP280;10403;54.092;12.122;2022-08-19T06:22:47;101318.03;;;25.17
20490;BMP280;10403;54.092;12.122;2022-08-19T06:25:16;101318.34;;;25.12
20490;BMP280;10403;54.092;12.122;2022-08-19T06:27:44;101308.03;;;25.06
20490;BMP280;10403;54.092;12.122;2022-08-19T06:30:32;101315.41;;;25.02
20490;BMP280;10403;54.092;12.122;2022-08-19T06:32:59;101308.66;;;24.97
20490;BMP280;10403;54.092;12.122;2022-08-19T06:35:26;101306.16;;;24.94
20490;BMP280;10403;54.092;12.122;2022-08-19T06:37:53;101295.59;;;24.91
20490;BMP280;10403;54.092;12.122;2022-08-19T06:40:21;101305.09;;;24.96
20490;BMP280;10403;54.092;12.122;2022-08-19T06:42:48;101297.34;;;24.92
20490;BMP280;10403;54.092;12.122;2022-08-19T06:45:22;101293.34;;;24.85
20490;BMP280;10403;54.092;12.122;2022-08-19T06:47:52;101293.03;;;24.89
20490;BMP280;10403;54.092;12.122;2022-08-19T06:50:22;101289.50;;;24.89
20490;BMP280;10403;54.092;12.122;2022-08-19T06:52:51;101279.53;;;24.91
20490;BMP280;10403;54.092;12.122;2022-08-19T06:55:19;101276.09;;;24.89
20490;BMP280;10403;54.092;12.122;2022-08-19T06:57:46;101275.38;;;24.87
20490;BMP280;10403;54.092;12.122;2022-08-19T07:00:15;101276.50;;;24.83
20490;BMP280;10403;54.092;12.122;2022-08-19T07:02:43;101288.94;;;24.84
20490;BMP280;10403;54.092;12.122;2022-08-19T07:05:23;101290.09;;;24.80
20490;BMP280;10403;54.092;12.122;2022-08-19T07:07:50;101292.22;;;24.75
20490;BMP280;10403;54.092;12.122;2022-08-19T07:10:18;101295.25;;;24.68
20490;BMP280;10403;54.092;12.122;2022-08-19T07:12:46;101299.66;;;24.69
20490;BMP280;10403;54.092;12.122;2022-08-19T07:15:14;101303.28;;;24.68
20490;BMP280;10403;54.092;12.122;2022-08-19T07:17:44;101304.06;;;24.70
20490;BMP280;10403;54.092;12.122;2022-08-19T07:20:15;101294.53;;;24.66
20490;BMP280;10403;54.092;12.122;2022-08-19T07:22:44;101297.31;;;24.65
20490;BMP280;10403;54.092;12.122;2022-08-19T07:25:12;101290.41;;;24.61
20490;BMP280;10403;54.092;12.122;2022-08-19T07:27:40;101296.88;;;24.71
20490;BMP280;10403;54.092;12.122;2022-08-19T07:30:12;101306.56;;;24.74
20490;BMP280;10403;54.092;12.122;2022-08-19T07:32:40;101290.22;;;24.64
20490;BMP280;10403;54.092;12.122;2022-08-19T07:35:09;101304.97;;;24.57
20490;BMP280;10403;54.092;12.122;2022-08-19T07:37:37;101301.81;;;24.36
20490;BMP280;10403;54.092;12.122;2022-08-19T07:40:07;101307.34;;;24.33
20490;BMP280;10403;54.092;12.122;2022-08-19T07:42:35;101301.16;;;24.32
20490;BMP280;10403;54.092;12.122;2022-08-19T07:45:04;101258.16;;;24.07
20490;BMP280;10403;54.092;12.122;2022-08-19T07:47:32;101311.56;;;24.37
20490;BMP280;10403;54.092;12.122;2022-08-19T07:50:19;101304.78;;;24.31
20490;BMP280;10403;54.092;12.122;2022-08-19T07:52:48;101321.84;;;24.29
20490;BMP280;10403;54.092;12.122;2022-08-19T07:55:22;101325.22;;;24.32
20490;BMP280;10403;54.092;12.122;2022-08-19T07:58:12;101319.94;;;24.31
20490;BMP280;10403;54.092;12.122;2022-08-19T08:00:41;101323.22;;;24.36
20490;BMP280;10403;54.092;12.122;2022-08-19T08:03:09;101323.56;;;24.30
20490;BMP280;10403;54.092;12.122;2022-08-19T08:05:36;101330.38;;;24.36
20490;BMP280;10403;54.092;12.122;2022-08-19T08:08:22;101315.28;;;24.34
20490;BMP280;10403;54.092;12.122;2022-08-19T08:11:12;101326.66;;;24.38
20490;BMP280;10403;54.092;12.122;2022-08-19T08:13:41;101322.16;;;24.39
20490;BMP280;10403;54.092;12.122;2022-08-19T08:16:09;101330.75;;;24.44
20490;BMP280;10403;54.092;12.122;2022-08-19T08:18:40;101320.53;;;24.36
20490;BMP280;10403;54.092;12.122;2022-08-19T08:21:16;101325.69;;;24.39
20490;BMP280;10403;54.092;12.122;2022-08-19T08:23:43;101336.78;;;24.47
20490;BMP280;10403;54.092;12.122;2022-08-19T08:26:10;101333.25;;;24.47
20490;BMP280;10403;54.092;12.122;2022-08-19T08:28:38;101334.28;;;24.44
20490;BMP280;10403;54.092;12.122;2022-08-19T08:31:06;101343.28;;;24.43
20490;BMP280;10403;54.092;12.122;2022-08-19T08:33:35;101351.28;;;24.43
20490;BMP280;10403;54.092;12.122;2022-08-19T08:36:06;101345.25;;;24.40
20490;BMP280;10403;54.092;12.122;2022-08-19T08:38:34;101346.97;;;24.41
20490;BMP280;10403;54.092;12.122;2022-08-19T08:44:19;101350.16;;;24.47
20490;BMP280;10403;54.092;12.122;2022-08-19T08:47:13;101344.22;;;24.42
20490;BMP280;10403;54.092;12.122;2022-08-19T08:49:59;101308.66;;;24.12
20490;BMP280;10403;54.092;12.122;2022-08-19T08:52:39;101360.34;;;24.41
20490;BMP280;10403;54.092;12.122;2022-08-19T08:55:23;101309.41;;;24.14
20490;BMP280;10403;54.092;12.122;2022-08-19T08:58:19;101348.63;;;24.43
20490;BMP280;10403;54.092;12.122;2022-08-19T09:00:48;101344.41;;;24.39
20490;BMP280;10403;54.092;12.122;2022-08-19T09:03:24;101349.38;;;24.45
20490;BMP280;10403;54.092;12.122;2022-08-19T09:06:32;101347.66;;;24.44
20490;BMP280;10403;54.092;12.122;2022-08-19T09:15:04;101363.53;;;24.47
20490;BMP280;10403;54.092;12.122;2022-08-19T09:17:32;101348.34;;;24.48
20490;BMP280;10403;54.092;12.122;2022-08-19T09:20:23;101344.69;;;24.34
20490;BMP280;10403;54.092;12.122;2022-08-19T09:22:52;101339.53;;;24.31
20490;BMP280;10403;54.092;12.122;2022-08-19T09:25:21;101353.84;;;24.30
20490;BMP280;10403;54.092;12.122;2022-08-19T09:27:54;101356.63;;;24.29
20490;BMP280;10403;54.092;12.122;2022-08-19T09:30:39;101354.72;;;24.31
20490;BMP280;10403;54.092;12.122;2022-08-19T09:33:07;101359.13;;;24.32
20490;BMP280;10403;54.092;12.122;2022-08-19T09:35:34;101349.75;;;24.25
20490;BMP280;10403;54.092;12.122;2022-08-19T09:38:20;101355.28;;;24.22
20490;BMP280;10403;54.092;12.122;2022-08-19T09:40:48;101345.72;;;24.18
20490;BMP280;10403;54.092;12.122;2022-08-19T09:43:17;101344.84;;;24.17
20490;BMP280;10403;54.092;12.122;2022-08-19T09:46:01;101357.31;;;24.32
20490;BMP280;10403;54.092;12.122;2022-08-19T09:48:29;101366.78;;;24.38
20490;BMP280;10403;54.092;12.122;2022-08-19T09:51:07;101360.34;;;24.41
20490;BMP280;10403;54.092;12.122;2022-08-19T09:53:38;101366.28;;;24.46
20490;BMP280;10403;54.092;12.122;2022-08-19T09:56:06;101362.38;;;24.51
20490;BMP280;10403;54.092;12.122;2022-08-19T09:58:36;101359.50;;;24.54
20490;BMP280;10403;54.092;12.122;2022-08-19T10:01:06;101354.84;;;24.58
20490;BMP280;10403;54.092;12.122;2022-08-19T10:03:36;101359.31;;;24.57
20490;BMP280;10403;54.092;12.122;2022-08-19T10:06:08;101365.03;;;24.51
20490;BMP280;10403;54.092;12.122;2022-08-19T10:08:43;101371.75;;;24.44
20490;BMP280;10403;54.092;12.122;2022-08-19T10:11:16;101370.97;;;24.42
20490;BMP280;10403;54.092;12.122;2022-08-19T10:14:02;101369.06;;;24.44
20490;BMP280;10403;54.092;12.122;2022-08-19T10:16:30;101375.97;;;24.48
20490;BMP280;10403;54.092;12.122;2022-08-19T10:19:05;101380.44;;;24.48
20490;BMP280;10403;54.092;12.122;2022-08-19T10:21:33;101375.28;;;24.45
20490;BMP280;10403;54.092;12.122;2022-08-19T10:24:04;101352.63;;;24.36
20490;BMP280;10403;54.092;12.122;2022-08-19T10:26:36;101369.84;;;24.46
20490;BMP280;10403;54.092;12.122;2022-08-19T10:29:05;101378.81;;;24.45
20490;BMP280;10403;54.092;12.122;2022-08-19T10:31:35;101378.03;;;24.43
20490;BMP280;10403;54.092;12.122;2022-08-19T10:34:22;101370.00;;;24.43
20490;BMP280;10403;54.092;12.122;2022-08-19T10:36:56;101365.25;;;24.48
20490;BMP280;10403;54.092;12.122;2022-08-19T10:39:29;101376.91;;;24.47
20490;BMP280;10403;54.092;12.122;2022-08-19T10:42:08;101370.97;;;24.42
20490;BMP280;10403;54.092;12.122;2022-08-19T10:44:40;101374.59;;;24.41
20490;BMP280;10403;54.092;12.122;2022-08-19T10:47:08;101379.47;;;24.49
20490;BMP280;10403;54.092;12.122;2022-08-19T10:49:52;101375.47;;;24.56
20490;BMP280;10403;54.092;12.122;2022-08-19T10:52:49;101373.44;;;24.59
20490;BMP280;10403;54.092;12.122;2022-08-19T10:55:21;101365.31;;;24.61
20490;BMP280;10403;54.092;12.122;2022-08-19T10:58:17;101364.38;;;24.62
20490;BMP280;10403;54.092;12.122;2022-08-19T11:00:55;101369.16;;;24.71
20490;BMP280;10403;54.092;12.122;2022-08-19T11:03:25;101368.88;;;24.76
20490;BMP280;10403;54.092;12.122;2022-08-19T11:06:06;101371.53;;;24.76
20490;BMP280;10403;54.092;12.122;2022-08-19T11:08:36;101370.00;;;24.71
20490;BMP280;10403;54.092;12.122;2022-08-19T11:11:06;101363.59;;;24.74
20490;BMP280;10403;54.092;12.122;2022-08-19T11:13:37;101362.84;;;24.72
20490;BMP280;10403;54.092;12.122;2022-08-19T11:16:13;101362.56;;;24.62
20490;BMP280;10403;54.092;12.122;2022-08-19T11:18:49;101372.41;;;24.62
20490;BMP280;10403;54.092;12.122;2022-08-19T11:21:24;101375.84;;;24.64
20490;BMP280;10403;54.092;12.122;2022-08-19T11:23:55;101366.00;;;24.64
20490;BMP280;10403;54.092;12.122;2022-08-19T11:26:24;101371.34;;;24.64
20490;BMP280;10403;54.092;12.122;2022-08-19T11:28:52;101387.59;;;24.61
20490;BMP280;10403;54.092;12.122;2022-08-19T11:31:25;101374.03;;;24.50
20490;BMP280;10403;54.092;12.122;2022-08-19T11:34:03;101381.38;;;24.61
20490;BMP280;10403;54.092;12.122;2022-08-19T11:36:31;101364.09;;;24.52
20490;BMP280;10403;54.092;12.122;2022-08-19T11:39:07;101367.63;;;24.53
20490;BMP280;10403;54.092;12.122;2022-08-19T11:41:35;101373.66;;;24.56
20490;BMP280;10403;54.092;12.122;2022-08-19T11:44:03;101376.44;;;24.55
20490;BMP280;10403;54.092;12.122;2022-08-19T11:46:31;101374.69;;;24.54
20490;BMP280;10403;54.092;12.122;2022-08-19T11:48:59;101373.16;;;24.50
20490;BMP280;10403;54.092;12.122;2022-08-19T11:51:27;101377.84;;;24.46
20490;BMP280;10403;54.092;12.122;2022-08-19T11:53:57;101378.81;;;24.45
20490;BMP280;10403;54.092;12.122;2022-08-19T11:56:26;101375.97;;;24.48
20490;BMP280;10403;54.092;12.122;2022-08-19T11:58:54;101376.78;;;24.49
20490;BMP280;10403;54.092;12.122;2022-08-19T12:01:27;101377.66;;;24.49
20490;BMP280;10403;54.092;12.122;2022-08-19T12:03:55;101368.03;;;24.47
20490;BMP280;10403;54.092;12.122;2022-08-19T12:06:32;101374.41;;;24.44
20490;BMP280;10403;54.092;12.122;2022-08-19T12:09:05;101371.16;;;24.39
20490;BMP280;10403;54.092;12.122;2022-08-19T12:11:33;101368.78;;;24.34
20490;BMP280;10403;54.092;12.122;2022-08-19T12:14:01;101361.03;;;24.30
20490;BMP280;10403;54.092;12.122;2022-08-19T12:16:30;101357.78;;;24.25
20490;BMP280;10403;54.092;12.122;2022-08-19T12:18:59;101352.63;;;24.22
20490;BMP280;10403;54.092;12.122;2022-08-19T12:21:34;101347.44;;;24.19
20490;BMP280;10403;54.092;12.122;2022-08-19T12:24:04;101350.84;;;24.21
20490;BMP280;10403;54.092;12.122;2022-08-19T12:26:32;101353.63;;;24.19
20490;BMP280;10403;54.092;12.122;2022-08-19T12:29:04;101351.16;;;24.16
20490;BMP280;10403;54.092;12.122;2022-08-19T12:31:32;101343.78;;;24.20
20490;BMP280;10403;54.092;12.122;2022-08-19T12:33:59;101343.13;;;24.16
20490;BMP280;10403;54.092;12.122;2022-08-19T12:36:27;101347.63;;;24.16
20490;BMP280;10403;54.092;12.122;2022-08-19T12:38:54;101351.16;;;24.16
20490;BMP280;10403;54.092;12.122;2022-08-19T12:41:21;101351.06;;;24.18
20490;BMP280;10403;54.092;12.122;2022-08-19T12:43:49;101355.34;;;24.20
20490;BMP280;10403;54.092;12.122;2022-08-19T12:46:19;101355.34;;;24.20
20490;BMP280;10403;54.092;12.122;2022-08-19T12:48:51;101357.44;;;24.15
20490;BMP280;10403;54.092;12.122;2022-08-19T12:51:21;101351.81;;;24.06
20490;BMP280;10403;54.092;12.122;2022-08-19T12:53:49;101338.22;;;23.94
20490;BMP280;10403;54.092;12.122;2022-08-19T12:56:16;101355.13;;;23.95
20490;BMP280;10403;54.092;12.122;2022-08-19T12:58:49;101347.75;;;23.84
20490;BMP280;10403;54.092;12.122;2022-08-19T13:01:19;101350.34;;;23.86
20490;BMP280;10403;54.092;12.122;2022-08-19T13:03:50;101347.56;;;23.87
20490;BMP280;10403;54.092;12.122;2022-08-19T13:06:21;101352.91;;;23.87
20490;BMP280;10403;54.092;12.122;2022-08-19T13:08:48;101349.97;;;23.92
20490;BMP280;10403;54.092;12.122;2022-08-19T13:11:19;101347.88;;;23.97
20490;BMP280;10403;54.092;12.122;2022-08-19T13:13:48;101353.13;;;23.98
20490;BMP280;10403;54.092;12.122;2022-08-19T13:16:18;101322.75;;;23.85
20490;BMP280;10403;54.092;12.122;2022-08-19T13:18:48;101357.53;;;24.14
20490;BMP280;10403;54.092;12.122;2022-08-19T13:21:16;101352.97;;;24.16
20490;BMP280;10403;54.092;12.122;2022-08-19T13:23:46;101352.19;;;24.14
20490;BMP280;10403;54.092;12.122;2022-08-19T13:26:15;101349.69;;;24.11
20490;BMP280;10403;54.092;12.122;2022-08-19T13:28:44;101354.88;;;24.14
20490;BMP280;10403;54.092;12.122;2022-08-19T13:31:34;101349.91;;;24.08
20490;BMP280;10403;54.092;12.122;2022-08-19T13:34:32;101355.25;;;24.08
20490;BMP280;10403;54.092;12.122;2022-08-19T13:37:01;101350.56;;;24.11
20490;BMP280;10403;54.092;12.122;2022-08-19T13:39:34;101355.47;;;24.19
20490;BMP280;10403;54.092;12.122;2022-08-19T13:42:02;101342.19;;;24.17
20490;BMP280;10403;54.092;12.122;2022-08-19T13:44:32;101355.78;;;24.28
20490;BMP280;10403;54.092;12.122;2022-08-19T13:47:05;101348.59;;;24.29
20490;BMP280;10403;54.092;12.122;2022-08-19T13:49:35;101355.88;;;24.41
20490;BMP280;10403;54.092;12.122;2022-08-19T13:52:05;101362.84;;;24.44
20490;BMP280;10403;54.092;12.122;2022-08-19T13:54:32;101354.91;;;24.42
20490;BMP280;10403;54.092;12.122;2022-08-19T13:57:00;101346.50;;;24.34
20490;BMP280;10403;54.092;12.122;2022-08-19T13:59:27;101364.38;;;24.33
20490;BMP280;10403;54.092;12.122;2022-08-19T14:01:59;101361.63;;;24.35
20490;BMP280;10403;54.092;12.122;2022-08-19T14:04:27;101352.81;;;24.33
20490;BMP280;10403;54.092;12.122;2022-08-19T14:06:54;101351.19;;;24.30
20490;BMP280;10403;54.092;12.122;2022-08-19T14:09:21;101352.25;;;24.28
20490;BMP280;10403;54.092;12.122;2022-08-19T14:11:48;101344.22;;;24.28
20490;BMP280;10403;54.092;12.122;2022-08-19T14:14:17;101336.88;;;24.31
20490;BMP280;10403;54.092;12.122;2022-08-19T14:16:44;101333.91;;;24.36